Time;durP1;ratioP1;P1;durP2;ratioP2;P2;SDS_P1;SDS_P2;PMS_P1;PMS_P2;Temp;Humidity;BMP_temperature;BMP_pressure;BME280_temperature;BME280_humidity;BME280_pressure;Samples;Min_cycle;Max_cycle;Signal;HPM_P1;HPM_P2
2022/06/03 00:02:57;;;;;;;3.75;2.78;;;;;;;15.50;47.20;100362.13;5052054;28;20049;-62
2022/06/03 00:05:44;;;;;;;3.05;2.78;;;;;;;15.52;46.95;100353.22;5053930;28;20053;-60
2022/06/03 00:08:55;;;;;;;4.13;2.80;;;;;;;15.43;47.91;100352.00;5053150;28;20049;-62
2022/06/03 00:11:37;;;;;;;3.58;2.90;;;;;;;15.41;48.00;100343.31;5052866;28;20103;-61
2022/06/03 00:14:36;;;;;;;3.15;2.83;;;;;;;15.34;48.09;100343.75;5053485;28;20053;-60
2022/06/03 00:17:12;;;;;;;3.63;3.00;;;;;;;15.34;47.38;100345.53;5051983;28;20052;-60
2022/06/03 00:20:21;;;;;;;3.60;2.95;;;;;;;15.24;48.28;100346.16;5053010;28;20052;-60
2022/06/03 00:22:50;;;;;;;2.83;2.53;;;;;;;15.20;48.17;100352.63;5009015;28;20053;-60
2022/06/03 00:25:35;;;;;;;4.40;2.97;;;;;;;15.13;48.54;100350.50;5053055;28;20060;-60
2022/06/03 00:28:13;;;;;;;3.22;2.50;;;;;;;15.08;48.68;100348.16;5051557;28;20060;-61
2022/06/03 00:31:13;;;;;;;5.25;2.47;;;;;;;15.03;48.97;100347.63;5052615;28;20049;-61
2022/06/03 00:34:08;;;;;;;4.30;2.75;;;;;;;15.00;48.89;100339.84;5051731;28;20098;-61
2022/06/03 00:36:49;;;;;;;2.85;2.55;;;;;;;14.95;48.80;100343.66;5051636;28;20049;-60
2022/06/03 00:39:54;;;;;;;2.70;2.50;;;;;;;14.87;48.85;100332.72;5053069;28;20434;-61
2022/06/03 00:42:43;;;;;;;3.92;2.95;;;;;;;14.85;49.16;100334.63;5052349;28;20516;-60
2022/06/03 00:45:23;;;;;;;3.03;2.70;;;;;;;14.81;48.86;100330.47;5052820;28;20056;-62
2022/06/03 00:48:08;;;;;;;3.33;2.95;;;;;;;14.73;49.13;100330.94;5051195;28;20683;-61
2022/06/03 00:50:57;;;;;;;3.80;2.78;;;;;;;14.67;49.30;100332.19;5052311;28;20053;-60
2022/06/03 00:53:44;;;;;;;2.97;2.75;;;;;;;14.67;48.70;100328.69;5051378;28;20060;-64
2022/06/03 00:56:47;;;;;;;3.63;2.70;;;;;;;14.59;49.82;100329.19;5052655;28;20413;-62
2022/06/03 00:59:34;;;;;;;3.80;2.88;;;;;;;14.53;49.69;100326.91;5052340;28;20053;-62
2022/06/03 01:02:21;;;;;;;4.22;2.35;;;;;;;14.49;49.60;100322.78;5050837;28;20052;-62
2022/06/03 01:05:03;;;;;;;3.30;2.25;;;;;;;14.44;50.24;100326.56;5051057;28;20126;-62
2022/06/03 01:07:46;;;;;;;2.83;2.40;;;;;;;14.41;50.10;100320.63;5052138;28;20052;-63
2022/06/03 01:10:34;;;;;;;5.07;2.70;;;;;;;14.37;50.13;100330.56;5050833;28;20464;-64
2022/06/03 01:13:12;;;;;;;2.30;2.10;;;;;;;14.35;50.66;100324.50;5051996;28;20048;-62
2022/06/03 01:15:59;;;;;;;4.28;2.40;;;;;;;14.32;50.83;100322.91;5050741;28;20500;-63
2022/06/03 01:19:01;;;;;;;5.78;2.92;;;;;;;14.30;51.02;100327.47;5052146;28;20053;-61
2022/06/03 01:22:01;;;;;;;4.78;2.20;;;;;;;14.30;50.80;100332.75;5040968;28;20048;-61
2022/06/03 01:24:59;;;;;;;4.38;2.45;;;;;;;14.29;50.84;100331.06;5052205;28;20078;-62
2022/06/03 01:28:13;;;;;;;6.03;2.38;;;;;;;14.28;51.02;100324.06;5052039;28;20049;-62
2022/06/03 01:31:02;;;;;;;3.55;2.47;;;;;;;14.29;50.89;100325.78;5051533;28;20056;-61
2022/06/03 01:33:41;;;;;;;2.70;2.50;;;;;;;14.26;51.23;100327.75;5051938;28;20106;-61
2022/06/03 01:36:32;;;;;;;3.17;2.22;;;;;;;14.25;51.55;100328.69;5051674;28;20057;-61
2022/06/03 01:39:15;;;;;;;3.83;2.60;;;;;;;14.20;51.41;100323.69;5051524;28;20083;-63
2022/06/03 01:41:42;;;;;;;3.13;2.72;;;;;;;14.22;50.54;100321.81;5051262;28;20056;-62
2022/06/03 01:44:32;;;;;;;5.03;2.80;;;;;;;14.17;51.89;100323.91;5051419;28;20049;-62
2022/06/03 01:47:30;;;;;;;5.90;2.50;;;;;;;14.13;51.55;100320.56;5050990;28;20535;-64
2022/06/03 01:50:41;;;;;;;3.78;2.53;;;;;;;14.10;51.30;100323.44;5051183;28;20052;-62
2022/06/03 01:53:25;;;;;;;4.97;2.47;;;;;;;14.06;51.67;100311.34;5051250;28;20049;-63
2022/06/03 01:56:08;;;;;;;4.53;2.58;;;;;;;14.03;51.83;100315.03;5051452;28;20045;-63
2022/06/03 01:58:56;;;;;;;2.90;2.55;;;;;;;13.98;51.79;100319.75;5050122;28;20060;-62
2022/06/03 02:01:44;;;;;;;3.30;2.45;;;;;;;13.94;51.92;100316.44;5050821;28;20049;-62
2022/06/03 02:04:26;;;;;;;5.93;2.60;;;;;;;13.93;51.73;100312.09;5051175;28;20053;-62
2022/06/03 02:07:17;;;;;;;2.78;2.42;;;;;;;13.87;52.19;100304.53;5051333;28;20056;-62
2022/06/03 02:10:01;;;;;;;3.78;2.85;;;;;;;13.83;51.83;100316.25;5051081;28;20060;-62
2022/06/03 02:12:49;;;;;;;7.93;3.00;;;;;;;13.79;52.37;100309.44;5050972;28;20057;-64
2022/06/03 02:15:34;;;;;;;3.70;2.47;;;;;;;13.74;52.39;100320.34;5051133;28;20455;-62
2022/06/03 02:18:13;;;;;;;4.28;3.05;;;;;;;13.75;51.26;100308.78;5050882;28;20049;-61
2022/06/03 02:20:55;;;;;;;3.25;2.67;;;;;;;13.68;53.35;100308.31;5050931;28;20049;-62
2022/06/03 02:23:33;;;;;;;3.08;2.67;;;;;;;13.66;52.80;100310.22;5050778;28;20538;-62
2022/06/03 02:26:23;;;;;;;4.60;2.78;;;;;;;13.63;52.55;100305.13;5050907;28;20072;-64
2022/06/03 02:32:47;;;;;;;6.72;3.20;;;;;;;13.58;52.98;100304.56;5031890;28;20493;-62
2022/06/03 02:35:16;;;;;;;3.60;2.88;;;;;;;13.58;51.73;100301.91;5050865;28;20061;-62
2022/06/03 02:37:49;;;;;;;6.82;3.00;;;;;;;13.52;52.65;100302.25;5050924;28;20496;-62
2022/06/03 02:40:28;;;;;;;3.20;2.75;;;;;;;13.50;52.96;100304.16;5050664;28;20053;-62
2022/06/03 02:43:13;;;;;;;4.22;2.83;;;;;;;13.40;53.10;100304.69;5050532;28;20051;-62
2022/06/03 02:46:21;;;;;;;6.20;2.92;;;;;;;13.37;53.20;100294.28;5050472;28;20045;-62
2022/06/03 02:49:21;;;;;;;4.47;2.90;;;;;;;13.34;53.04;100289.19;5050263;28;20482;-60
2022/06/03 02:52:00;;;;;;;4.18;2.78;;;;;;;13.35;52.96;100282.09;5050220;28;20053;-61
2022/06/03 02:55:00;;;;;;;3.60;3.20;;;;;;;13.28;53.49;100289.56;5051008;28;20061;-61
2022/06/03 02:57:48;;;;;;;2.97;2.67;;;;;;;13.28;53.10;100279.81;5050568;28;20044;-62
2022/06/03 03:00:24;;;;;;;3.95;2.72;;;;;;;13.25;53.46;100293.25;5053406;28;20048;-62
2022/06/03 03:03:00;;;;;;;3.60;2.83;;;;;;;13.22;53.71;100289.91;5053432;28;20049;-61
2022/06/03 03:05:36;;;;;;;3.10;2.78;;;;;;;13.20;53.94;100281.22;5053444;28;20056;-62
2022/06/03 03:08:34;;;;;;;5.28;2.90;;;;;;;13.19;53.84;100279.53;5054522;28;20052;-63
2022/06/03 03:11:38;;;;;;;3.05;2.75;;;;;;;13.18;54.01;100275.16;5054493;28;20535;-62
2022/06/03 03:14:36;;;;;;;5.38;3.00;;;;;;;13.19;54.19;100280.38;5054354;28;20057;-62
2022/06/03 03:17:42;;;;;;;3.92;2.95;;;;;;;13.18;54.36;100286.59;5054468;28;20045;-61
2022/06/03 03:20:44;;;;;;;2.95;2.65;;;;;;;13.19;54.51;100282.19;5054226;28;20052;-61
2022/06/03 03:23:45;;;;;;;5.65;2.70;;;;;;;13.20;54.40;100281.22;5054417;28;20052;-62
2022/06/03 03:26:48;;;;;;;3.22;2.78;;;;;;;13.19;54.37;100277.72;5054202;28;20497;-62
2022/06/03 03:29:29;;;;;;;5.75;3.17;;;;;;;13.22;54.57;100277.56;5053976;28;20048;-60
2022/06/03 03:32:23;;;;;;;5.57;3.42;;;;;;;13.21;54.87;100275.84;5053909;28;20045;-62
2022/06/03 03:35:11;;;;;;;4.30;3.30;;;;;;;13.24;54.36;100282.75;5054002;28;20091;-62
2022/06/03 03:37:43;;;;;;;4.45;3.22;;;;;;;13.24;54.62;100283.59;5053960;28;20065;-64
2022/06/03 03:40:28;;;;;;;3.37;3.07;;;;;;;13.23;54.70;100281.06;5053843;28;20057;-62
2022/06/03 03:43:19;;;;;;;4.63;3.15;;;;;;;13.24;54.86;100278.28;5053825;28;20049;-61
2022/06/03 03:46:04;;;;;;;5.15;3.35;;;;;;;13.24;54.86;100274.81;5053663;28;20048;-62
2022/06/03 03:48:49;;;;;;;3.95;3.40;;;;;;;13.29;53.93;100275.38;5053438;28;20075;-61
2022/06/03 03:51:54;;;;;;;3.80;3.20;;;;;;;13.30;53.83;100274.44;5053523;28;20098;-62
2022/06/03 03:54:51;;;;;;;4.95;2.90;;;;;;;13.26;55.28;100279.06;4972214;28;20090;-61
2022/06/03 03:57:39;;;;;;;6.68;3.67;;;;;;;13.30;54.80;100277.09;4972318;28;20047;-61
2022/06/03 04:00:27;;;;;;;4.32;3.17;;;;;;;13.31;54.96;100277.94;5038916;28;20111;-63
2022/06/03 04:03:24;;;;;;;3.47;3.17;;;;;;;13.27;55.18;100278.13;5053605;28;20060;-61
2022/06/03 04:06:09;;;;;;;3.67;3.05;;;;;;;13.26;55.47;100263.22;5053585;28;20057;-61
2022/06/03 04:09:06;;;;;;;5.38;3.40;;;;;;;13.29;55.36;100268.31;5053092;28;20045;-64
2022/06/03 04:12:01;;;;;;;3.83;3.35;;;;;;;13.32;55.78;100267.28;5051644;28;20132;-61
2022/06/03 04:15:15;;;;;;;5.80;3.35;;;;;;;13.35;55.46;100266.25;5053270;28;20049;-61
2022/06/03 04:18:14;;;;;;;5.18;3.60;;;;;;;13.37;55.82;100261.69;4992160;28;20049;-61
2022/06/03 04:21:09;;;;;;;4.10;3.47;;;;;;;13.40;55.61;100274.75;5052976;28;20063;-62
2022/06/03 04:23:44;;;;;;;5.20;3.90;;;;;;;13.46;55.64;100281.47;5053378;28;20138;-62
2022/06/03 04:26:23;;;;;;;3.70;3.30;;;;;;;13.47;55.69;100286.66;5053086;28;20500;-62
2022/06/03 04:29:36;;;;;;;5.60;4.03;;;;;;;13.47;56.09;100278.72;5053047;28;20049;-62
2022/06/03 04:32:14;;;;;;;6.63;3.88;;;;;;;13.53;55.96;100272.25;5052528;28;20087;-60
2022/06/03 04:34:56;;;;;;;5.45;4.25;;;;;;;13.58;55.72;100274.59;5052907;28;20443;-63
2022/06/03 04:37:48;;;;;;;4.72;4.05;;;;;;;13.58;56.13;100271.94;5052872;28;20053;-60
2022/06/03 04:40:43;;;;;;;5.68;4.05;;;;;;;13.61;55.88;100275.25;5052646;28;20499;-62
2022/06/03 04:43:54;;;;;;;6.38;3.92;;;;;;;13.62;55.77;100278.75;5052752;28;20053;-62
2022/06/03 04:46:58;;;;;;;11.70;4.40;;;;;;;13.65;56.03;100276.75;5052503;28;20497;-61
2022/06/03 04:49:24;;;;;;;6.25;3.63;;;;;;;13.72;54.86;100285.16;5052898;28;20053;-62
2022/06/03 04:52:28;;;;;;;4.97;4.13;;;;;;;13.71;56.29;100274.69;5052324;28;20212;-62
2022/06/03 04:55:22;;;;;;;5.70;4.07;;;;;;;13.76;56.28;100277.91;5052677;28;20048;-61
2022/06/03 04:58:17;;;;;;;4.72;4.20;;;;;;;13.79;56.13;100278.56;5052432;28;20053;-61
2022/06/03 05:01:11;;;;;;;4.38;3.90;;;;;;;13.84;56.17;100267.69;5051086;28;20048;-62
2022/06/03 05:03:59;;;;;;;4.60;4.10;;;;;;;13.89;56.21;100265.59;5051866;28;20052;-63
2022/06/03 05:07:08;;;;;;;4.60;4.05;;;;;;;13.93;56.15;100258.31;5052241;28;20059;-62
2022/06/03 05:09:54;;;;;;;5.72;4.15;;;;;;;13.99;56.17;100251.78;5051830;28;20390;-62
2022/06/03 05:12:53;;;;;;;7.80;4.20;;;;;;;14.03;56.10;100248.00;5051607;28;20068;-62
2022/06/03 05:15:50;;;;;;;5.78;4.55;;;;;;;14.07;56.33;100247.72;5052053;28;20064;-64
2022/06/03 05:18:44;;;;;;;7.88;4.38;;;;;;;14.12;56.04;100250.06;5051340;28;20452;-61
2022/06/03 05:21:32;;;;;;;5.50;4.20;;;;;;;14.16;55.88;100251.56;5051630;28;20079;-61
2022/06/03 05:24:13;;;;;;;6.30;4.47;;;;;;;14.24;55.08;100239.63;5051741;28;20052;-62
2022/06/03 05:26:52;;;;;;;4.95;4.32;;;;;;;14.26;55.71;100246.53;5052021;28;20048;-62
2022/06/03 05:29:40;;;;;;;6.55;4.07;;;;;;;14.28;55.90;100246.44;5051478;28;20049;-62
2022/06/03 05:32:16;;;;;;;6.80;4.70;;;;;;;14.33;56.08;100241.69;5051117;28;20056;-62
2022/06/03 05:35:04;;;;;;;5.95;4.40;;;;;;;14.36;56.34;100248.56;5051801;28;20045;-62
2022/06/03 05:37:50;;;;;;;5.00;4.50;;;;;;;14.44;56.18;100254.22;5049911;28;20053;-62
2022/06/03 05:40:41;;;;;;;6.10;4.07;;;;;;;14.50;56.02;100250.31;5051033;28;20497;-62
2022/06/03 05:43:28;;;;;;;5.50;4.18;;;;;;;14.55;55.88;100251.69;5051399;28;20049;-62
2022/06/03 05:46:01;;;;;;;7.35;4.70;;;;;;;14.63;55.83;100243.25;5051330;28;20111;-61
2022/06/03 05:48:46;;;;;;;7.28;4.80;;;;;;;14.68;55.67;100242.94;5051447;28;20057;-62
2022/06/03 05:51:17;;;;;;;5.88;4.38;;;;;;;14.76;55.78;100245.97;5050543;28;20103;-63
2022/06/03 05:54:16;;;;;;;7.35;4.55;;;;;;;14.81;55.65;100250.97;5051474;28;20072;-62
2022/06/03 05:56:46;;;;;;;4.80;4.30;;;;;;;14.89;55.65;100243.34;5050833;28;20110;-62
2022/06/03 05:59:21;;;;;;;6.25;4.68;;;;;;;14.93;55.92;100250.16;5051122;28;20485;-65
2022/06/03 06:02:06;;;;;;;8.35;4.57;;;;;;;14.98;55.71;100240.06;5050616;28;20060;-62
2022/06/03 06:04:51;;;;;;;6.57;4.72;;;;;;;15.05;55.66;100237.84;5051134;28;20531;-63
2022/06/03 06:07:27;;;;;;;7.03;4.70;;;;;;;15.13;55.62;100241.78;5050989;28;20041;-61
2022/06/03 06:10:42;;;;;;;6.43;4.65;;;;;;;15.18;55.62;100237.00;5051240;28;20126;-62
2022/06/03 06:13:50;;;;;;;4.60;4.15;;;;;;;15.25;55.36;100235.63;5050956;28;20041;-62
2022/06/03 06:16:20;;;;;;;5.22;3.83;;;;;;;15.36;55.11;100237.53;5051254;28;20065;-62
2022/06/03 06:19:05;;;;;;;5.05;4.55;;;;;;;15.38;55.36;100243.59;5049782;28;20404;-61
2022/06/03 06:21:50;;;;;;;6.35;4.38;;;;;;;15.48;54.89;100241.97;5049429;28;20056;-61
2022/06/03 06:24:20;;;;;;;10.75;4.82;;;;;;;15.56;55.12;100245.91;5050377;28;20106;-63
2022/06/03 06:27:30;;;;;;;4.57;4.13;;;;;;;15.60;55.76;100242.09;5050472;28;20056;-63
2022/06/03 06:30:06;;;;;;;4.40;4.00;;;;;;;15.71;55.61;100238.66;5050662;28;20060;-62
2022/06/03 06:32:51;;;;;;;7.68;4.22;;;;;;;15.81;55.66;100238.88;5050516;28;20045;-62
2022/06/03 06:35:59;;;;;;;6.07;4.43;;;;;;;15.88;55.31;100233.00;5050904;28;20056;-63
2022/06/03 06:38:35;;;;;;;8.07;4.40;;;;;;;16.00;54.68;100231.28;5050501;28;20060;-61
2022/06/03 06:41:16;;;;;;;4.68;3.92;;;;;;;16.08;55.00;100229.91;5050369;28;20056;-62
2022/06/03 06:43:50;;;;;;;4.72;4.20;;;;;;;16.16;54.96;100227.53;5050682;28;20045;-61
2022/06/03 06:46:33;;;;;;;5.47;4.10;;;;;;;16.23;54.65;100228.75;5049487;28;20084;-61
2022/06/03 06:49:23;;;;;;;6.03;4.25;;;;;;;16.32;54.30;100223.72;5049317;28;20060;-62
2022/06/03 06:52:15;;;;;;;5.07;3.55;;;;;;;16.41;54.26;100229.22;5049013;28;20053;-64
2022/06/03 06:55:07;;;;;;;4.57;3.75;;;;;;;16.51;53.64;100237.34;5050772;28;20067;-62
2022/06/03 06:57:41;;;;;;;8.68;4.30;;;;;;;16.63;53.70;100232.09;5050362;28;20045;-62
2022/06/03 07:00:32;;;;;;;5.05;4.10;;;;;;;16.68;53.88;100230.75;5049304;28;20056;-61
2022/06/03 07:03:17;;;;;;;7.50;3.63;;;;;;;16.79;53.62;100227.28;5049038;28;20049;-61
2022/06/03 07:05:54;;;;;;;4.20;3.65;;;;;;;16.88;53.88;100236.41;5049265;28;20067;-63
2022/06/03 07:08:22;;;;;;;4.43;3.97;;;;;;;17.00;53.15;100231.09;5050645;28;20079;-63
2022/06/03 07:10:51;;;;;;;4.15;3.50;;;;;;;17.08;53.11;100230.56;5050189;28;20049;-63
2022/06/03 07:13:32;;;;;;;4.63;3.63;;;;;;;17.14;52.81;100235.38;5048908;28;20052;-61
2022/06/03 07:16:14;;;;;;;4.47;3.53;;;;;;;17.24;52.54;100236.38;5049083;28;20048;-62
2022/06/03 07:22:28;;;;;;;4.28;3.40;;;;;;;17.43;52.43;100241.09;5050093;28;20049;-62
2022/06/03 07:25:27;;;;;;;3.85;3.47;;;;;;;17.53;52.44;100237.72;5050222;28;20056;-62
2022/06/03 07:28:16;;;;;;;3.80;3.40;;;;;;;17.63;51.97;100235.16;5050196;28;20110;-62
2022/06/03 07:30:54;;;;;;;5.20;3.40;;;;;;;17.74;51.81;100235.16;5048395;28;20053;-62
2022/06/03 07:33:39;;;;;;;4.72;3.80;;;;;;;17.82;51.87;100243.41;5050311;28;20179;-62
2022/06/03 07:36:21;;;;;;;4.22;3.35;;;;;;;17.93;51.68;100236.34;5050311;28;20501;-61
2022/06/03 07:39:15;;;;;;;4.38;3.33;;;;;;;18.02;51.74;100232.94;5048716;28;20493;-61
2022/06/03 07:41:54;;;;;;;3.67;3.05;;;;;;;18.14;51.45;100225.81;5039446;28;20456;-63
2022/06/03 07:44:28;;;;;;;5.40;3.60;;;;;;;18.24;50.88;100228.56;5048889;28;20056;-61
2022/06/03 07:47:02;;;;;;;3.58;3.25;;;;;;;18.33;51.30;100229.63;5052260;28;20103;-61
2022/06/03 07:49:34;;;;;;;4.50;3.65;;;;;;;18.45;50.88;100230.44;5053743;28;20053;-62
2022/06/03 07:52:08;;;;;;;3.60;3.30;;;;;;;18.54;50.84;100224.31;5053664;28;20049;-64
2022/06/03 07:54:40;;;;;;;4.20;3.35;;;;;;;18.64;50.82;100219.06;5052573;28;20053;-63
2022/06/03 07:57:16;;;;;;;3.80;3.30;;;;;;;18.73;50.87;100223.63;5052463;28;20052;-62
2022/06/03 07:59:43;;;;;;;3.80;3.28;;;;;;;18.86;50.68;100217.25;5053525;28;20055;-64
2022/06/03 08:02:21;;;;;;;3.72;3.28;;;;;;;18.94;50.27;100220.13;5051903;28;20049;-62
2022/06/03 08:05:17;;;;;;;6.75;3.30;;;;;;;19.06;50.25;100214.75;5052356;28;20148;-62
2022/06/03 08:10:57;;;;;;;4.82;3.28;;;;;;;19.30;49.29;100218.94;5053227;28;20049;-61
2022/06/03 08:13:25;;;;;;;3.75;2.88;;;;;;;19.40;49.34;100215.34;5052121;28;20065;-63
2022/06/03 08:16:02;;;;;;;3.28;2.97;;;;;;;19.50;49.72;100219.88;5052091;28;20049;-63
2022/06/03 08:18:34;;;;;;;3.60;3.15;;;;;;;19.61;49.14;100214.44;5053306;28;20057;-61
2022/06/03 08:21:06;;;;;;;4.35;3.20;;;;;;;19.73;50.26;100214.34;5052995;28;20057;-62
2022/06/03 08:23:34;;;;;;;4.03;3.00;;;;;;;19.86;49.44;100209.59;5052083;28;20080;-62
2022/06/03 08:26:08;;;;;;;3.30;2.83;;;;;;;19.96;49.34;100211.44;5051822;28;20064;-62
2022/06/03 08:28:37;;;;;;;4.53;2.72;;;;;;;20.08;49.49;100207.69;5051776;28;20060;-61
2022/06/03 08:31:06;;;;;;;2.95;2.40;;;;;;;20.19;48.65;100209.41;5051437;28;20053;-62
2022/06/03 08:33:45;;;;;;;3.05;2.60;;;;;;;20.29;48.40;100209.38;5051622;28;20040;-62
2022/06/03 08:36:16;;;;;;;3.75;2.50;;;;;;;20.41;47.93;100216.28;5053211;28;20052;-62
2022/06/03 08:38:49;;;;;;;7.28;2.83;;;;;;;20.53;47.76;100213.47;5052969;28;20041;-62
2022/06/03 08:41:44;;;;;;;3.83;2.90;;;;;;;20.63;47.62;100208.13;5051351;28;20060;-63
2022/06/03 08:44:25;;;;;;;2.75;2.30;;;;;;;20.74;48.42;100207.13;5052896;28;20088;-63
2022/06/03 08:47:01;;;;;;;2.80;2.50;;;;;;;20.89;47.23;100208.38;5052712;28;20067;-62
2022/06/03 08:49:45;;;;;;;2.88;2.60;;;;;;;20.98;47.21;100208.50;5052601;28;20564;-63
2022/06/03 08:52:14;;;;;;;2.83;2.15;;;;;;;21.10;46.94;100212.72;5052397;28;20416;-62
2022/06/03 08:54:55;;;;;;;4.95;2.58;;;;;;;21.16;46.41;100206.75;5052443;28;20053;-63
2022/06/03 08:57:22;;;;;;;3.10;2.60;;;;;;;21.28;46.74;100203.91;5050108;28;20501;-62
2022/06/03 09:00:00;;;;;;;3.17;2.10;;;;;;;21.33;46.27;100204.31;5052397;28;20049;-64
2022/06/03 09:02:33;;;;;;;4.07;2.35;;;;;;;21.44;46.67;100201.47;5052063;28;20512;-64
2022/06/03 09:05:11;;;;;;;2.40;2.20;;;;;;;21.52;46.37;100200.72;5051259;28;20057;-63
2022/06/03 09:07:48;;;;;;;2.92;2.50;;;;;;;21.65;46.21;100204.88;5052529;28;20044;-62
2022/06/03 09:10:40;;;;;;;3.05;2.25;;;;;;;21.72;46.32;100196.13;5050698;28;20056;-62
2022/06/03 09:13:12;;;;;;;2.30;2.10;;;;;;;21.86;46.60;100199.28;5052082;28;20057;-65
2022/06/03 09:15:44;;;;;;;2.65;2.45;;;;;;;21.97;45.61;100195.53;5050833;28;20049;-63
2022/06/03 09:18:18;;;;;;;2.28;2.08;;;;;;;22.06;44.83;100200.03;5052220;28;20053;-63
2022/06/03 09:20:54;;;;;;;3.75;2.03;;;;;;;22.17;44.35;100195.41;5050770;28;20064;-62
2022/06/03 09:23:23;;;;;;;2.53;2.05;;;;;;;22.28;44.46;100189.00;5051922;28;20055;-63
2022/06/03 09:25:55;;;;;;;2.97;2.03;;;;;;;22.35;44.08;100184.69;5050805;28;20079;-62
2022/06/03 09:28:26;;;;;;;3.75;1.85;;;;;;;22.42;43.89;100179.56;5052029;28;20048;-62
2022/06/03 09:30:54;;;;;;;3.00;1.85;;;;;;;22.51;44.32;100178.63;5051674;28;20049;-63
2022/06/03 09:33:23;;;;;;;3.20;2.05;;;;;;;22.58;44.18;100163.59;5050534;28;20053;-61
2022/06/03 09:35:53;;;;;;;1.80;1.70;;;;;;;22.67;43.63;100155.63;5051680;28;20048;-63
2022/06/03 09:38:24;;;;;;;1.63;1.52;;;;;;;22.76;43.73;100158.19;5050514;28;20497;-63
2022/06/03 09:40:55;;;;;;;1.65;1.55;;;;;;;22.87;43.69;100149.03;5050371;28;20053;-62
2022/06/03 09:43:27;;;;;;;2.70;1.90;;;;;;;22.96;42.50;100147.25;5050343;28;20060;-63
2022/06/03 09:45:59;;;;;;;1.80;1.70;;;;;;;23.08;42.40;100157.72;5051480;28;20064;-63
2022/06/03 09:48:31;;;;;;;2.53;1.50;;;;;;;23.17;42.33;100159.44;5050220;28;20071;-63
2022/06/03 09:51:07;;;;;;;2.30;1.70;;;;;;;23.27;41.68;100156.63;5051397;28;20057;-63
2022/06/03 09:53:36;;;;;;;2.70;1.27;;;;;;;23.37;41.81;100156.53;5050102;28;20052;-62
2022/06/03 09:56:07;;;;;;;1.90;1.50;;;;;;;23.42;41.64;100143.44;5050130;28;20061;-62
2022/06/03 09:58:34;;;;;;;3.05;1.55;;;;;;;23.52;41.26;100154.91;5050063;28;20079;-62
2022/06/03 10:01:03;;;;;;;1.67;1.40;;;;;;;23.59;40.78;100148.88;5049693;28;20083;-62
2022/06/03 10:03:30;;;;;;;2.22;1.65;;;;;;;23.64;40.64;100157.28;5051456;28;20053;-62
2022/06/03 10:05:59;;;;;;;2.40;1.50;;;;;;;23.68;40.07;100156.81;5051070;28;20485;-62
2022/06/03 10:12:48;;;;;;;1.58;1.48;;;;;;;23.73;39.76;100150.94;5049730;28;20056;-62
2022/06/03 10:14:02;;;;;;;1.73;1.40;;;;;;;23.93;40.07;100148.78;5051054;28;20052;-62
2022/06/03 10:16:30;;;;;;;1.45;1.25;;;;;;;24.02;40.17;100149.66;5050981;28;20086;-62
2022/06/03 10:18:57;;;;;;;5.53;1.58;;;;;;;24.11;40.12;100149.69;5051156;28;20143;-62
2022/06/03 10:21:25;;;;;;;3.08;1.48;;;;;;;24.21;39.64;100147.66;5050795;28;20053;-62
2022/06/03 10:23:51;;;;;;;3.95;1.40;;;;;;;24.31;39.27;100153.75;5050742;28;20064;-61
2022/06/03 10:26:36;;;;;;;2.38;1.50;;;;;;;24.38;38.43;100143.13;5050888;28;20053;-64
2022/06/03 10:29:10;;;;;;;1.50;1.00;;;;;;;24.48;37.82;100148.31;5049678;28;20068;-62
2022/06/03 10:32:07;;;;;;;1.45;1.17;;;;;;;24.58;37.80;100146.31;5049196;28;20537;-62
2022/06/03 10:34:38;;;;;;;1.40;1.15;;;;;;;24.69;38.06;100145.13;5050974;28;20106;-62
2022/06/03 10:37:14;;;;;;;2.97;1.50;;;;;;;24.79;38.87;100139.56;5050733;28;20098;-61
2022/06/03 10:39:43;;;;;;;1.38;1.27;;;;;;;24.97;39.52;100139.34;5050813;28;20055;-61
2022/06/03 10:42:19;;;;;;;1.55;1.10;;;;;;;25.15;39.23;100140.16;5050211;28;20084;-61
2022/06/03 10:44:49;;;;;;;1.70;1.13;;;;;;;25.45;38.64;100137.66;5049284;28;20057;-63
2022/06/03 10:47:22;;;;;;;2.53;1.38;;;;;;;25.83;38.67;100148.56;5050889;28;20084;-62
2022/06/03 10:49:57;;;;;;;2.55;1.50;;;;;;;26.23;37.79;100136.81;5049424;28;20059;-62
2022/06/03 11:01:09;;;;;;;1.60;1.00;;;;;;;28.63;36.68;100121.22;5050257;28;20512;-62
2022/06/03 11:03:41;;;;;;;0.80;0.80;;;;;;;29.18;34.59;100123.22;5050334;28;20045;-62
2022/06/03 11:06:14;;;;;;;1.65;0.95;;;;;;;29.61;33.11;100113.19;5049270;28;20412;-63
2022/06/03 11:08:46;;;;;;;1.58;1.20;;;;;;;29.99;32.33;100112.63;5050554;28;20053;-62
2022/06/03 11:11:14;;;;;;;1.08;0.70;;;;;;;30.34;32.89;100105.34;5050121;28;20053;-62
2022/06/03 11:13:40;;;;;;;0.80;0.80;;;;;;;30.63;31.86;100095.88;5049066;28;20056;-62
2022/06/03 11:16:19;;;;;;;1.75;1.20;;;;;;;30.89;31.38;100099.59;5050260;28;20061;-62
2022/06/03 11:18:46;;;;;;;1.95;0.90;;;;;;;31.21;31.44;100096.16;5049129;28;20405;-62
2022/06/03 11:21:30;;;;;;;3.25;0.80;;;;;;;31.44;32.02;100084.72;5052708;28;20053;-62
2022/06/03 11:23:59;;;;;;;5.07;0.82;;;;;;;31.75;30.48;100081.41;5054170;28;20041;-62
2022/06/03 11:26:31;;;;;;;1.35;1.00;;;;;;;31.96;29.95;100080.22;5054197;28;20401;-63
2022/06/03 11:29:03;;;;;;;1.42;0.70;;;;;;;32.19;30.54;100076.91;5053040;28;20045;-64
2022/06/03 11:31:35;;;;;;;5.30;1.33;;;;;;;32.42;29.31;100066.41;5052781;28;20049;-62
2022/06/03 11:34:07;;;;;;;1.00;0.85;;;;;;;32.65;28.46;100064.91;5054071;28;20379;-62
2022/06/03 11:36:41;;;;;;;1.20;0.80;;;;;;;32.86;27.82;100063.63;5053830;28;20053;-62
2022/06/03 11:39:10;;;;;;;2.03;0.90;;;;;;;33.01;27.81;100060.56;5052877;28;20053;-62
2022/06/03 11:41:49;;;;;;;2.78;0.77;;;;;;;33.10;26.80;100059.16;5053970;28;20057;-61
2022/06/03 11:44:36;;;;;;;1.63;0.68;;;;;;;33.18;28.63;100051.72;5052638;28;20048;-62
2022/06/03 11:47:10;;;;;;;1.35;0.75;;;;;;;33.27;26.88;100048.44;5053814;28;20040;-61
2022/06/03 11:49:37;;;;;;;0.65;0.65;;;;;;;33.36;26.58;100051.66;5052740;28;20099;-60
2022/06/03 11:52:07;;;;;;;1.02;0.73;;;;;;;33.45;25.99;100046.69;5053349;28;20048;-60
2022/06/03 11:54:34;;;;;;;1.10;0.65;;;;;;;33.55;26.05;100040.72;5053733;28;20049;-60
2022/06/03 11:57:02;;;;;;;1.48;0.80;;;;;;;33.63;26.21;100045.84;5053556;28;20516;-62
2022/06/03 11:59:47;;;;;;;1.75;1.05;;;;;;;33.65;26.48;100043.72;5053591;28;20074;-62
2022/06/03 12:02:25;;;;;;;1.00;0.80;;;;;;;33.77;26.72;100042.88;5052278;28;20052;-60
2022/06/03 12:04:59;;;;;;;0.63;0.57;;;;;;;33.90;25.36;100042.66;5052347;28;20067;-61
2022/06/03 12:07:35;;;;;;;0.65;0.65;;;;;;;34.01;27.02;100041.00;5052347;28;20057;-61
2022/06/03 12:10:24;;;;;;;1.95;0.88;;;;;;;34.14;26.87;100031.78;5053304;28;20053;-62
2022/06/03 12:13:28;;;;;;;1.20;0.70;;;;;;;34.29;25.95;100034.03;5053173;28;20548;-61
2022/06/03 12:15:55;;;;;;;2.92;0.60;;;;;;;34.54;25.17;100040.28;5051952;28;20080;-61
2022/06/03 12:18:34;;;;;;;1.38;0.70;;;;;;;34.67;24.42;100048.25;5053156;28;20053;-60
2022/06/03 12:21:07;;;;;;;2.28;0.50;;;;;;;34.90;24.09;100048.44;5051801;28;20275;-61
2022/06/03 12:23:37;;;;;;;0.50;0.50;;;;;;;35.08;23.82;100040.03;5051745;28;20048;-61
2022/06/03 12:26:21;;;;;;;1.42;0.60;;;;;;;35.25;24.99;100038.44;5053031;28;20696;-62
2022/06/03 12:28:50;;;;;;;1.83;0.80;;;;;;;35.52;23.85;100026.84;5053029;28;20059;-62
2022/06/03 12:31:20;;;;;;;0.40;0.40;;;;;;;35.66;23.63;100025.50;5051489;28;20521;-63
2022/06/03 12:34:22;;;;;;;1.95;0.70;;;;;;;35.77;24.21;100021.00;5053086;28;20080;-62
2022/06/03 12:37:00;;;;;;;1.08;0.63;;;;;;;35.92;23.95;100025.91;5051593;28;20071;-62
2022/06/03 12:39:53;;;;;;;0.63;0.60;;;;;;;35.89;22.58;100020.91;5053094;28;20049;-60
2022/06/03 12:42:26;;;;;;;0.47;0.47;;;;;;;35.84;23.69;100016.19;5052536;28;20441;-61
2022/06/03 12:45:03;;;;;;;;;;;;;;;35.87;26.04;100012.09;5053225;28;20055;-60
2022/06/03 12:47:33;;;;;;;0.93;0.50;;;;;;;36.02;23.96;100019.72;5052645;28;19931;-62
2022/06/03 12:50:21;;;;;;;2.10;0.50;;;;;;;36.03;24.37;100026.03;5052680;28;20083;-61
2022/06/03 12:52:49;;;;;;;0.70;0.52;;;;;;;36.10;23.09;100008.34;5052572;28;20110;-62
2022/06/03 12:55:27;;;;;;;3.45;0.88;;;;;;;36.00;22.95;100010.94;5051287;28;20041;-61
2022/06/03 12:57:59;;;;;;;16.70;1.60;;;;;;;35.90;22.71;100003.41;5052407;28;20051;-62
2022/06/03 13:00:32;;;;;;;;;;;;;;;35.81;25.01;100010.38;5052686;28;20261;-60